Time;durP1;ratioP1;P1;durP2;ratioP2;P2;SDS_P1;SDS_P2;PMS_P1;PMS_P2;Temp;Humidity;BMP_temperature;BMP_pressure;BME280_temperature;BME280_humidity;BME280_pressure;Samples;Min_cycle;Max_cycle;Signal;HPM_P1;HPM_P2
2022/06/02 00:01:17;;;;;;;0.00;0.00;;;18.80;99.90;;;;;;4893683;29;20033;-67
2022/06/02 00:04:04;;;;;;;0.00;0.00;;;18.80;99.90;;;;;;4915309;29;20044;-66
2022/06/02 00:06:42;;;;;;;0.00;0.00;;;18.80;99.90;;;;;;4927989;29;20027;-67
2022/06/02 00:09:29;;;;;;;0.00;0.00;;;18.80;99.90;;;;;;4945221;29;20028;-67
2022/06/02 00:12:24;;;;;;;0.00;0.00;;;18.80;99.90;;;;;;4928456;29;20049;-67
2022/06/02 00:15:17;;;;;;;0.00;0.00;;;18.80;99.90;;;;;;4945540;29;20039;-67
2022/06/02 00:18:09;;;;;;;0.00;0.00;;;18.70;99.90;;;;;;4928295;29;20027;-67
2022/06/02 00:20:41;;;;;;;0.00;0.00;;;18.70;99.90;;;;;;4928112;29;20094;-67
2022/06/02 00:23:32;;;;;;;0.00;0.00;;;18.70;99.90;;;;;;4945015;29;20335;-67
2022/06/02 00:26:15;;;;;;;0.00;0.00;;;18.70;99.90;;;;;;4928295;29;20019;-67
2022/06/02 00:28:55;;;;;;;0.00;0.00;;;18.60;99.90;;;;;;4945208;29;20016;-67
2022/06/02 00:31:36;;;;;;;0.00;0.00;;;18.50;99.90;;;;;;4944759;29;20091;-67
2022/06/02 00:34:32;;;;;;;0.00;0.00;;;18.50;99.90;;;;;;4927875;29;20038;-68
2022/06/02 00:37:16;;;;;;;0.00;0.00;;;18.50;99.90;;;;;;4945303;29;20067;-67
2022/06/02 00:39:42;;;;;;;0.00;0.00;;;18.40;99.90;;;;;;4928235;29;20333;-67
2022/06/02 00:42:26;;;;;;;0.00;0.00;;;18.40;99.90;;;;;;4944905;29;20023;-67
2022/06/02 00:44:58;;;;;;;0.00;0.00;;;18.40;99.90;;;;;;4928213;29;20023;-67
2022/06/02 00:47:54;;;;;;;0.00;0.00;;;18.30;99.90;;;;;;4927834;29;20032;-66
2022/06/02 00:50:35;;;;;;;0.00;0.00;;;18.30;99.90;;;;;;4944527;29;20038;-66
2022/06/02 00:53:37;;;;;;;0.00;0.00;;;18.30;99.90;;;;;;4948520;29;20041;-66
2022/06/02 00:59:59;;;;;;;0.00;0.00;;;18.20;99.90;;;;;;4948392;29;20034;-67
2022/06/02 01:02:27;;;;;;;0.00;0.00;;;18.20;99.90;;;;;;4925998;29;20330;-66
2022/06/02 01:04:54;;;;;;;0.00;0.00;;;18.20;99.90;;;;;;4948885;29;20235;-67
2022/06/02 01:07:33;;;;;;;0.00;0.00;;;18.10;99.90;;;;;;4931093;29;20020;-67
2022/06/02 01:10:05;;;;;;;0.00;0.00;;;18.10;99.90;;;;;;4948759;29;20028;-66
2022/06/02 01:12:39;;;;;;;0.00;0.00;;;18.00;99.90;;;;;;4947804;29;20027;-66
2022/06/02 01:15:11;;;;;;;0.00;0.00;;;18.00;99.90;;;;;;4948464;29;20020;-66
2022/06/02 01:17:36;;;;;;;0.00;0.00;;;18.00;99.90;;;;;;4948292;29;20016;-67
2022/06/02 01:20:07;;;;;;;0.00;0.00;;;18.00;99.90;;;;;;4948193;29;20024;-66
2022/06/02 01:22:59;;;;;;;0.00;0.00;;;18.00;99.90;;;;;;4947862;29;20122;-67
2022/06/02 01:25:43;;;;;;;0.00;0.00;;;18.00;99.90;;;;;;4931077;29;20030;-68
2022/06/02 01:28:43;;;;;;;0.00;0.00;;;18.00;99.90;;;;;;4930902;29;20098;-66
2022/06/02 01:31:18;;;;;;;0.00;0.00;;;17.90;99.90;;;;;;4948333;29;20024;-66
2022/06/02 01:34:15;;;;;;;0.00;0.00;;;17.90;99.90;;;;;;4931316;29;20041;-66
2022/06/02 01:36:47;;;;;;;0.00;0.00;;;17.90;99.90;;;;;;4931064;29;20054;-66
2022/06/02 01:39:50;;;;;;;0.00;0.00;;;17.90;99.90;;;;;;4948064;29;20251;-66
2022/06/02 01:42:26;;;;;;;0.00;0.00;;;17.90;99.90;;;;;;4918790;29;20145;-66
2022/06/02 01:45:09;;;;;;;0.00;0.00;;;17.90;99.90;;;;;;4947750;29;20026;-66
2022/06/02 01:47:42;;;;;;;0.00;0.00;;;17.90;99.90;;;;;;4930417;29;20102;-66
2022/06/02 01:50:25;;;;;;;0.00;0.00;;;17.90;99.90;;;;;;4947719;29;20029;-66
2022/06/02 01:53:00;;;;;;;0.00;0.00;;;17.90;99.90;;;;;;4930677;29;20027;-66
2022/06/02 01:55:41;;;;;;;0.00;0.00;;;17.90;99.90;;;;;;4947225;29;20121;-66
2022/06/02 01:58:09;;;;;;;0.00;0.00;;;17.90;99.90;;;;;;4930952;29;20054;-66
2022/06/02 02:00:36;;;;;;;0.00;0.00;;;17.90;99.90;;;;;;4930136;29;20351;-66
2022/06/02 02:03:20;;;;;;;0.00;0.00;;;17.80;99.90;;;;;;4946413;29;20055;-66
2022/06/02 02:06:26;;;;;;;0.00;0.00;;;17.80;99.90;;;;;;4947578;29;20075;-66
2022/06/02 02:09:17;;;;;;;0.00;0.00;;;17.80;99.90;;;;;;4947182;29;20030;-66
2022/06/02 02:11:56;;;;;;;0.00;0.00;;;17.80;99.90;;;;;;4947104;29;20034;-67
2022/06/02 02:14:41;;;;;;;0.00;0.00;;;17.70;99.90;;;;;;4946945;29;20095;-66
2022/06/02 02:17:09;;;;;;;0.00;0.00;;;17.70;99.90;;;;;;4947025;29;20019;-66
2022/06/02 02:19:53;;;;;;;0.00;0.00;;;17.70;99.90;;;;;;4929739;29;20095;-66
2022/06/02 02:22:46;;;;;;;0.00;0.00;;;17.70;99.90;;;;;;4947024;29;20094;-67
2022/06/02 02:25:23;;;;;;;0.00;0.00;;;17.70;99.90;;;;;;4947386;29;20027;-66
2022/06/02 02:28:02;;;;;;;0.00;0.00;;;17.60;99.90;;;;;;4930748;29;20026;-66
2022/06/02 02:31:00;;;;;;;0.00;0.00;;;17.60;99.90;;;;;;4929940;29;20031;-66
2022/06/02 02:33:46;;;;;;;;;;;17.60;99.90;;;;;;4907349;29;20035;-67
2022/06/02 02:36:47;;;;;;;0.00;0.00;;;17.50;99.90;;;;;;4947430;29;19973;-69
2022/06/02 02:39:41;;;;;;;0.00;0.00;;;17.50;99.90;;;;;;4919949;29;20098;-67
2022/06/02 02:42:35;;;;;;;0.00;0.00;;;17.50;99.90;;;;;;4930191;29;20024;-67
2022/06/02 02:45:08;;;;;;;0.00;0.00;;;17.60;99.90;;;;;;4934467;29;20039;-67
2022/06/02 02:48:06;;;;;;;0.00;0.00;;;17.60;99.90;;;;;;4929082;29;20067;-67
2022/06/02 02:50:40;;;;;;;0.00;0.00;;;17.50;99.90;;;;;;4934488;29;20027;-67
2022/06/02 02:53:21;;;;;;;0.00;0.00;;;17.50;99.90;;;;;;4929638;29;20046;-66
2022/06/02 02:56:00;;;;;;;0.00;0.00;;;17.20;99.90;;;;;;4946725;29;20019;-66
2022/06/02 02:58:47;;;;;;;0.00;0.00;;;17.60;99.90;;;;;;4946295;29;20047;-66
2022/06/02 03:01:19;;;;;;;0.00;0.00;;;17.50;99.90;;;;;;4929399;29;20210;-67
2022/06/02 03:04:07;;;;;;;0.00;0.00;;;17.50;99.90;;;;;;4945723;29;20047;-66
2022/06/02 03:06:37;;;;;;;0.00;0.00;;;17.60;99.90;;;;;;4946020;29;20078;-66
2022/06/02 03:09:12;;;;;;;0.00;0.00;;;17.60;99.90;;;;;;4946418;29;20027;-66
2022/06/02 03:11:50;;;;;;;0.00;0.00;;;17.60;99.90;;;;;;4945965;29;20027;-66
2022/06/02 03:14:22;;;;;;;0.00;0.00;;;17.60;99.90;;;;;;4945889;29;20035;-66
2022/06/02 03:17:10;;;;;;;0.00;0.00;;;17.50;99.90;;;;;;4946138;29;20054;-66
2022/06/02 03:19:42;;;;;;;;;;;17.60;99.90;;;;;;4929025;29;20026;-66
2022/06/02 03:22:19;;;;;;;0.00;0.00;;;17.60;99.90;;;;;;4946120;29;19903;-67
2022/06/02 03:25:01;;;;;;;0.00;0.00;;;17.60;99.90;;;;;;4945318;29;20047;-67
2022/06/02 03:27:36;;;;;;;0.00;0.00;;;17.60;99.90;;;;;;4945691;29;20023;-67
2022/06/02 03:30:18;;;;;;;0.00;0.00;;;17.60;99.90;;;;;;4929074;29;20136;-67
2022/06/02 03:32:43;;;;;;;0.00;0.00;;;17.60;99.90;;;;;;4928505;29;20170;-67
2022/06/02 03:35:33;;;;;;;0.00;0.00;;;17.60;99.90;;;;;;4929063;29;20023;-67
2022/06/02 03:38:24;;;;;;;0.00;0.00;;;17.60;99.90;;;;;;4945928;29;20064;-67
2022/06/02 03:41:18;;;;;;;0.00;0.00;;;17.60;99.90;;;;;;4928794;29;20023;-66
2022/06/02 03:44:12;;;;;;;0.00;0.00;;;17.60;99.90;;;;;;4928293;29;20051;-66
2022/06/02 03:47:04;;;;;;;0.00;0.00;;;17.60;99.90;;;;;;4928317;29;20051;-67
2022/06/02 03:49:41;;;;;;;0.00;0.00;;;17.60;99.90;;;;;;4945373;29;20082;-66
2022/06/02 03:52:28;;;;;;;0.00;0.00;;;17.60;99.90;;;;;;4928786;29;20302;-67
2022/06/02 03:55:26;;;;;;;0.00;0.00;;;17.60;99.90;;;;;;4928589;29;20028;-66
2022/06/02 03:57:51;;;;;;;;;;;17.60;99.90;;;;;;4894356;29;20040;-66
2022/06/02 04:00:28;;;;;;;0.00;0.00;;;17.60;99.90;;;;;;4945447;29;19965;-66
2022/06/02 04:03:05;;;;;;;0.00;0.00;;;17.60;99.90;;;;;;4945214;29;20326;-66
2022/06/02 04:06:09;;;;;;;0.00;0.00;;;17.60;99.90;;;;;;4945266;29;20299;-67
2022/06/02 04:09:02;;;;;;;0.00;0.00;;;17.60;99.90;;;;;;4928095;29;20023;-67
2022/06/02 04:15:03;;;;;;;0.00;0.00;;;17.60;99.90;;;;;;4944806;29;20144;-67
2022/06/02 04:17:56;;;;;;;0.00;0.00;;;17.60;99.90;;;;;;4928022;29;20024;-67
2022/06/02 04:20:43;;;;;;;0.00;0.00;;;17.60;99.90;;;;;;4928427;29;20027;-66
2022/06/02 04:23:22;;;;;;;0.00;0.00;;;17.60;99.90;;;;;;4945448;29;20031;-66
2022/06/02 04:26:25;;;;;;;0.00;0.00;;;17.60;99.90;;;;;;4928086;29;20306;-67
2022/06/02 04:28:54;;;;;;;0.00;0.00;;;17.60;99.90;;;;;;4932169;29;20285;-67
2022/06/02 04:31:57;;;;;;;0.00;0.00;;;17.60;99.90;;;;;;4949223;29;20115;-66
2022/06/02 04:34:41;;;;;;;0.00;0.00;;;17.60;99.90;;;;;;4902955;29;20234;-67
2022/06/02 04:37:30;;;;;;;0.00;0.00;;;17.60;99.90;;;;;;4932638;29;20024;-66
2022/06/02 04:40:09;;;;;;;0.00;0.00;;;17.70;99.90;;;;;;4949213;29;20023;-65
2022/06/02 04:42:37;;;;;;;0.00;0.00;;;17.60;99.90;;;;;;4931983;29;20053;-67
2022/06/02 04:45:27;;;;;;;0.00;0.00;;;17.70;99.90;;;;;;4949066;29;20030;-66
2022/06/02 04:48:14;;;;;;;0.00;0.00;;;17.70;99.90;;;;;;4949471;29;20026;-67
2022/06/02 04:51:07;;;;;;;0.00;0.00;;;17.70;99.90;;;;;;4948884;29;20056;-67
2022/06/02 04:53:51;;;;;;;0.00;0.00;;;17.70;99.90;;;;;;4930955;29;20156;-67
2022/06/02 04:56:25;;;;;;;0.00;0.00;;;17.70;99.90;;;;;;4932059;29;20152;-67
2022/06/02 04:59:10;;;;;;;0.00;0.00;;;17.70;99.90;;;;;;4948711;29;20024;-67
2022/06/02 05:02:01;;;;;;;0.00;0.00;;;17.80;99.90;;;;;;4931358;29;20023;-66
2022/06/02 05:04:47;;;;;;;0.00;0.00;;;17.80;99.90;;;;;;4931836;29;20044;-68
2022/06/02 05:07:31;;;;;;;0.00;0.00;;;17.80;99.90;;;;;;4948892;29;20043;-66
2022/06/02 05:10:31;;;;;;;0.00;0.00;;;17.80;99.90;;;;;;4948795;29;20342;-66
2022/06/02 05:13:06;;;;;;;0.00;0.00;;;17.80;99.90;;;;;;4948568;29;20227;-66
2022/06/02 05:16:02;;;;;;;0.00;0.00;;;17.80;99.90;;;;;;4948271;29;20023;-66
2022/06/02 05:18:45;;;;;;;0.00;0.00;;;17.80;99.90;;;;;;4948775;29;20028;-66
2022/06/02 05:21:41;;;;;;;0.00;0.00;;;17.80;99.90;;;;;;4948630;29;20047;-66
2022/06/02 05:24:34;;;;;;;0.00;0.00;;;17.80;99.90;;;;;;4931656;29;20027;-66
2022/06/02 05:27:18;;;;;;;0.00;0.00;;;17.90;99.90;;;;;;4948849;29;20020;-66
2022/06/02 05:30:09;;;;;;;0.00;0.00;;;17.90;99.90;;;;;;4947982;29;20024;-66
2022/06/02 05:32:48;;;;;;;0.00;0.00;;;18.00;99.90;;;;;;4947742;29;20042;-66
2022/06/02 05:35:54;;;;;;;0.00;0.00;;;18.00;99.90;;;;;;4948150;29;20274;-66
2022/06/02 05:38:58;;;;;;;0.00;0.00;;;18.00;99.90;;;;;;4896358;29;20136;-66
2022/06/02 05:41:53;;;;;;;0.00;0.00;;;18.10;99.90;;;;;;4948181;29;20084;-66
2022/06/02 05:44:25;;;;;;;0.00;0.00;;;18.20;99.90;;;;;;4931193;29;20210;-66
2022/06/02 05:47:02;;;;;;;0.00;0.00;;;18.20;99.90;;;;;;4947801;29;20036;-66
2022/06/02 05:49:40;;;;;;;0.00;0.00;;;18.30;99.90;;;;;;4948018;29;20081;-65
2022/06/02 05:52:06;;;;;;;0.00;0.00;;;18.40;99.90;;;;;;4947806;29;20023;-66
2022/06/02 05:54:41;;;;;;;0.00;0.00;;;18.50;99.90;;;;;;4947649;29;20058;-72
2022/06/02 05:57:44;;;;;;;0.00;0.00;;;18.50;99.90;;;;;;4947968;29;20027;-66
2022/06/02 06:00:25;;;;;;;0.00;0.00;;;18.70;99.90;;;;;;4947851;29;20047;-66
2022/06/02 06:02:58;;;;;;;0.00;0.00;;;18.80;99.90;;;;;;4947276;29;20063;-66
2022/06/02 06:05:46;;;;;;;0.00;0.00;;;18.90;99.90;;;;;;4947837;29;20023;-66
2022/06/02 06:08:38;;;;;;;0.00;0.00;;;19.10;99.90;;;;;;4930771;29;20027;-67
2022/06/02 06:11:26;;;;;;;0.00;0.00;;;19.30;99.90;;;;;;4928833;29;20058;-67
2022/06/02 06:14:13;;;;;;;0.00;0.00;;;19.40;99.90;;;;;;4947342;29;20311;-67
2022/06/02 06:16:44;;;;;;;0.00;0.00;;;19.60;99.90;;;;;;4947032;29;20028;-67
2022/06/02 06:19:22;;;;;;;0.00;0.00;;;19.90;99.90;;;;;;4929634;29;20095;-67
2022/06/02 06:21:55;;;;;;;;;;;20.30;99.90;;;;;;4930335;29;20015;-67
2022/06/02 06:24:41;;;;;;;0.00;0.00;;;20.40;99.90;;;;;;4947275;29;20190;-67
2022/06/02 06:27:07;;;;;;;0.00;0.00;;;20.60;99.90;;;;;;4947366;29;20152;-67
2022/06/02 06:30:05;;;;;;;0.00;0.00;;;20.60;99.90;;;;;;4947291;29;20031;-67
2022/06/02 06:32:35;;;;;;;;;;;20.70;99.90;;;;;;4947645;29;20034;-67
2022/06/02 06:35:42;;;;;;;0.00;0.00;;;20.80;99.90;;;;;;4947189;29;19977;-66
2022/06/02 06:38:27;;;;;;;0.00;0.00;;;20.90;99.90;;;;;;4930212;29;20057;-66
2022/06/02 06:41:02;;;;;;;0.00;0.00;;;20.90;99.90;;;;;;4929104;29;20031;-66
2022/06/02 06:43:41;;;;;;;0.00;0.00;;;20.80;99.90;;;;;;4947121;29;20028;-67
2022/06/02 06:46:12;;;;;;;0.00;0.00;;;20.60;99.90;;;;;;4930247;29;20207;-66
2022/06/02 06:48:43;;;;;;;0.00;0.00;;;20.80;99.90;;;;;;4945790;29;20046;-67
2022/06/02 06:51:54;;;;;;;0.00;0.00;;;20.90;99.90;;;;;;4946357;29;20023;-66
2022/06/02 06:54:46;;;;;;;0.00;0.00;;;21.20;99.90;;;;;;4925033;29;20064;-67
2022/06/02 06:57:34;;;;;;;0.00;0.00;;;21.10;99.90;;;;;;4946522;29;20082;-67
2022/06/02 07:00:08;;;;;;;0.00;0.00;;;21.00;98.60;;;;;;4946165;29;20031;-68
2022/06/02 07:03:09;;;;;;;0.00;0.00;;;20.80;99.10;;;;;;4946575;29;20055;-67
2022/06/02 07:05:49;;;;;;;0.00;0.00;;;20.80;99.90;;;;;;4945808;29;20047;-68
2022/06/02 07:08:20;;;;;;;0.00;0.00;;;20.90;99.90;;;;;;4929736;29;20023;-65
2022/06/02 07:10:57;;;;;;;0.00;0.00;;;21.00;99.90;;;;;;4946387;29;20206;-68
2022/06/02 07:13:43;;;;;;;0.00;0.00;;;21.10;99.70;;;;;;4929756;29;20066;-68
2022/06/02 07:16:18;;;;;;;0.00;0.00;;;21.20;99.40;;;;;;4929700;29;20338;-66
2022/06/02 07:19:05;;;;;;;0.00;0.00;;;21.30;99.90;;;;;;4929191;29;20320;-66
2022/06/02 07:21:44;;;;;;;0.00;0.00;;;21.30;99.00;;;;;;4946320;29;20306;-66
2022/06/02 07:24:22;;;;;;;0.00;0.00;;;21.40;99.30;;;;;;4946381;29;20118;-66
2022/06/02 07:27:06;;;;;;;0.00;0.00;;;21.40;99.00;;;;;;4945959;29;20015;-67
2022/06/02 07:29:44;;;;;;;0.00;0.00;;;21.40;98.20;;;;;;4946101;29;20042;-67
2022/06/02 07:32:22;;;;;;;0.00;0.00;;;21.40;98.80;;;;;;4929556;29;20019;-66
2022/06/02 07:35:13;;;;;;;0.00;0.00;;;21.20;98.00;;;;;;4945966;29;20040;-67
2022/06/02 07:38:16;;;;;;;0.00;0.00;;;21.10;98.30;;;;;;4919528;29;20032;-67
2022/06/02 07:41:02;;;;;;;0.00;0.00;;;21.00;98.80;;;;;;4945894;29;20042;-66
2022/06/02 07:43:46;;;;;;;0.00;0.00;;;20.90;99.20;;;;;;4945911;29;20051;-67
2022/06/02 07:46:30;;;;;;;0.00;0.00;;;20.90;99.60;;;;;;4960822;29;20302;-67
2022/06/02 07:49:23;;;;;;;0.00;0.00;;;20.80;98.90;;;;;;4946367;29;20019;-66
2022/06/02 07:52:08;;;;;;;0.00;0.00;;;20.80;99.10;;;;;;4955001;29;20045;-74
2022/06/02 07:54:43;;;;;;;0.00;0.00;;;20.90;98.60;;;;;;4917778;29;20273;-75
2022/06/02 07:57:11;;;;;;;0.00;0.00;;;21.00;97.90;;;;;;4941281;29;20126;-76
2022/06/02 08:00:03;;;;;;;0.00;0.00;;;21.20;97.20;;;;;;4924247;28;20023;-73
2022/06/02 08:03:02;;;;;;;0.00;0.00;;;21.30;96.20;;;;;;4920422;28;20051;-75
2022/06/02 08:05:47;;;;;;;0.00;0.00;;;21.50;96.50;;;;;;4921224;29;20119;-72
2022/06/02 08:08:24;;;;;;;0.00;0.00;;;21.80;95.90;;;;;;4903219;29;20032;-70
2022/06/02 08:11:23;;;;;;;0.00;0.00;;;22.30;95.50;;;;;;4920039;29;20072;-72
2022/06/02 08:14:16;;;;;;;0.00;0.00;;;23.10;95.50;;;;;;4920562;29;20047;-76
2022/06/02 08:16:54;;;;;;;0.00;0.00;;;23.90;94.00;;;;;;4921789;29;20020;-74
2022/06/02 08:19:38;;;;;;;0.00;0.00;;;24.60;92.70;;;;;;4922838;29;20019;-74
2022/06/02 08:22:08;;;;;;;0.00;0.00;;;25.30;91.50;;;;;;4920384;29;20384;-70
2022/06/02 08:24:36;;;;;;;0.00;0.00;;;25.70;91.00;;;;;;4919208;29;20032;-70
2022/06/02 08:27:19;;;;;;;0.00;0.00;;;26.10;90.90;;;;;;4902893;29;20083;-70
2022/06/02 08:30:10;;;;;;;0.00;0.00;;;26.60;87.70;;;;;;4903711;29;20188;-76
2022/06/02 08:33:03;;;;;;;0.00;0.00;;;27.20;82.60;;;;;;4911749;29;20047;-70
2022/06/02 08:35:40;;;;;;;0.00;0.00;;;27.80;83.50;;;;;;4912509;29;20031;-77
2022/06/02 08:38:21;;;;;;;0.00;0.00;;;28.70;82.30;;;;;;4920055;29;20027;-72
2022/06/02 08:41:29;;;;;;;0.00;0.00;;;29.60;77.50;;;;;;4920478;29;20666;-70
2022/06/02 08:44:40;;;;;;;0.00;0.00;;;30.30;72.70;;;;;;4921460;29;20027;-73
2022/06/02 08:47:39;;;;;;;0.00;0.00;;;30.70;71.60;;;;;;4917927;29;20044;-71
2022/06/02 08:50:31;;;;;;;0.00;0.00;;;30.80;65.50;;;;;;4919723;29;20302;-71
2022/06/02 08:53:07;;;;;;;0.00;0.00;;;31.30;65.80;;;;;;4921229;29;20074;-78
2022/06/02 08:55:53;;;;;;;0.00;0.00;;;31.40;68.00;;;;;;4921409;29;20028;-72
2022/06/02 08:58:28;;;;;;;0.00;0.00;;;31.90;64.80;;;;;;4920447;29;20196;-78
2022/06/02 09:01:18;;;;;;;0.00;0.00;;;32.40;59.30;;;;;;4901216;29;20035;-77
2022/06/02 09:03:56;;;;;;;0.00;0.00;;;33.10;64.10;;;;;;4912040;29;20063;-77
2022/06/02 09:06:40;;;;;;;0.00;0.00;;;33.80;63.70;;;;;;4918528;29;20027;-71
2022/06/02 09:09:37;;;;;;;0.00;0.00;;;34.70;62.10;;;;;;4900389;29;20042;-74
2022/06/02 09:12:17;;;;;;;0.00;0.00;;;34.90;57.20;;;;;;4922176;29;20030;-75
2022/06/02 09:15:12;;;;;;;0.00;0.00;;;35.00;55.10;;;;;;4924651;29;20031;-78
2022/06/02 09:18:16;;;;;;;0.00;0.00;;;35.00;56.20;;;;;;4924438;29;20230;-80
2022/06/02 09:21:04;;;;;;;0.00;0.00;;;35.40;56.40;;;;;;4879036;29;20028;-79
2022/06/02 09:23:48;;;;;;;0.00;0.00;;;36.10;53.00;;;;;;4920598;29;20310;-78
2022/06/02 09:26:43;;;;;;;0.00;0.00;;;35.40;51.30;;;;;;4922053;29;20075;-81
2022/06/02 09:29:20;;;;;;;;;;;35.30;52.90;;;;;;4903054;29;20232;-81
2022/06/02 09:31:57;;;;;;;0.00;0.00;;;35.30;49.80;;;;;;4890914;29;19992;-81
2022/06/02 09:34:29;;;;;;;0.00;0.00;;;35.00;51.40;;;;;;4888713;29;20067;-80
2022/06/02 09:37:06;;;;;;;0.00;0.00;;;34.80;49.30;;;;;;4908679;29;20039;-79
2022/06/02 09:40:14;;;;;;;0.00;0.00;;;35.40;55.30;;;;;;4890404;29;20031;-72
2022/06/02 09:43:12;;;;;;;0.00;0.00;;;35.90;52.70;;;;;;4882314;29;20037;-79
2022/06/02 09:45:38;;;;;;;0.00;0.00;;;36.20;48.80;;;;;;4908794;29;20038;-77
2022/06/02 09:48:42;;;;;;;0.00;0.00;;;36.30;49.60;;;;;;4905242;29;20032;-80
2022/06/02 09:51:41;;;;;;;0.00;0.00;;;36.70;50.80;;;;;;4883456;29;20082;-79
2022/06/02 09:54:25;;;;;;;0.00;0.00;;;37.20;51.70;;;;;;4908399;29;20139;-80
2022/06/02 09:57:55;;;;;;;0.00;0.00;;;38.10;49.80;;;;;;4905772;29;20059;-79
2022/06/02 10:00:13;;;;;;;0.00;0.00;;;38.10;46.80;;;;;;4908030;29;20543;-78
2022/06/02 10:02:56;;;;;;;0.00;0.00;;;38.60;47.60;;;;;;4907046;29;20224;-79
2022/06/02 10:05:44;;;;;;;0.00;0.00;;;39.20;48.10;;;;;;4886174;29;20354;-80
2022/06/02 10:08:38;;;;;;;0.00;0.00;;;39.70;48.90;;;;;;4877706;29;20207;-78
2022/06/02 10:11:24;;;;;;;0.00;0.00;;;40.50;45.00;;;;;;4899742;29;20153;-81
2022/06/02 10:14:06;;;;;;;0.00;0.00;;;41.10;46.30;;;;;;4879797;29;20036;-80
2022/06/02 10:16:54;;;;;;;0.00;0.00;;;41.50;45.60;;;;;;4892042;29;20098;-82
2022/06/02 10:19:50;;;;;;;0.00;0.00;;;41.90;45.60;;;;;;4886944;29;20036;-81
2022/06/02 10:22:30;;;;;;;0.00;0.00;;;42.30;44.80;;;;;;4893274;29;20039;-82
2022/06/02 10:25:17;;;;;;;0.00;0.00;;;42.30;44.30;;;;;;4907561;29;20032;-80
2022/06/02 10:28:24;;;;;;;0.00;0.00;;;42.30;44.10;;;;;;4892679;29;20300;-81
2022/06/02 10:30:56;;;;;;;0.00;0.00;;;42.60;43.00;;;;;;4894935;29;20027;-80
2022/06/02 10:33:41;;;;;;;0.00;0.00;;;42.80;43.00;;;;;;4910990;29;20262;-80
2022/06/02 10:36:25;;;;;;;0.00;0.00;;;43.10;44.20;;;;;;4894080;29;20137;-82
2022/06/02 10:39:22;;;;;;;0.00;0.00;;;43.20;42.70;;;;;;4907675;29;20038;-80
2022/06/02 10:42:28;;;;;;;0.00;0.00;;;43.60;42.40;;;;;;4887422;29;20043;-80
2022/06/02 10:45:18;;;;;;;0.00;0.00;;;41.70;41.60;;;;;;4905610;29;20039;-75
2022/06/02 10:48:04;;;;;;;0.00;0.00;;;40.70;39.10;;;;;;4889952;29;20126;-77
2022/06/02 10:51:00;;;;;;;0.00;0.00;;;38.10;42.60;;;;;;4906780;29;20032;-75
2022/06/02 10:53:25;;;;;;;;;;;36.90;45.80;;;;;;4905070;29;20390;-77
2022/06/02 10:55:57;;;;;;;;;;;36.70;48.80;;;;;;4892671;29;20070;-78
2022/06/02 10:59:00;;;;;;;0.00;0.00;;;37.60;46.60;;;;;;4905943;29;19915;-79
2022/06/02 11:01:57;;;;;;;0.00;0.00;;;38.50;43.60;;;;;;4891924;29;20123;-79
2022/06/02 11:04:47;;;;;;;0.00;0.00;;;39.20;45.30;;;;;;4907318;29;20056;-79
2022/06/02 11:07:37;;;;;;;0.00;0.00;;;40.70;44.50;;;;;;4889831;29;20068;-79
2022/06/02 11:10:12;;;;;;;0.00;0.00;;;41.80;42.20;;;;;;4888303;29;20034;-78
2022/06/02 11:12:55;;;;;;;0.00;0.00;;;41.80;39.50;;;;;;4885824;29;20034;-80
2022/06/02 11:15:25;;;;;;;0.00;0.00;;;41.30;40.10;;;;;;4887251;29;20123;-79
2022/06/02 11:18:06;;;;;;;0.00;0.00;;;40.90;42.50;;;;;;4905035;29;20571;-81
2022/06/02 11:20:50;;;;;;;0.00;0.00;;;40.50;43.30;;;;;;4888365;29;20028;-81
2022/06/02 11:24:07;;;;;;;0.00;0.00;;;39.10;42.00;;;;;;4888603;29;20035;-82
2022/06/02 11:26:52;;;;;;;0.00;0.00;;;37.50;42.20;;;;;;4886163;29;20076;-80
2022/06/02 11:29:36;;;;;;;0.00;0.00;;;37.30;43.40;;;;;;4888029;29;20092;-80
2022/06/02 11:32:12;;;;;;;0.00;0.00;;;36.30;41.90;;;;;;4888217;29;20131;-82
2022/06/02 11:35:03;;;;;;;0.00;0.00;;;35.30;46.50;;;;;;4890138;29;20623;-78
2022/06/02 11:37:56;;;;;;;0.00;0.00;;;34.20;45.20;;;;;;4868182;29;20401;-78
2022/06/02 11:40:55;;;;;;;0.00;0.00;;;32.80;45.60;;;;;;4869903;29;20058;-76
2022/06/02 11:43:30;;;;;;;0.00;0.00;;;31.70;48.90;;;;;;4885457;29;20092;-77
2022/06/02 11:46:32;;;;;;;0.00;0.00;;;30.50;49.70;;;;;;4887314;29;20083;-75
2022/06/02 11:49:31;;;;;;;0.00;0.00;;;29.60;52.70;;;;;;4875557;29;20088;-77
2022/06/02 11:52:09;;;;;;;0.00;0.00;;;29.00;53.70;;;;;;4887147;29;20071;-76
2022/06/02 11:55:11;;;;;;;0.00;0.00;;;28.50;55.70;;;;;;4886560;29;20172;-77
2022/06/02 11:57:49;;;;;;;0.00;0.00;;;28.00;50.70;;;;;;4897900;29;20587;-77
2022/06/02 12:00:28;;;;;;;0.00;0.00;;;27.60;55.70;;;;;;4886589;29;20297;-76
2022/06/02 12:03:05;;;;;;;0.00;0.00;;;27.10;54.40;;;;;;4912667;28;20096;-77
2022/06/02 12:06:21;;;;;;;0.00;0.00;;;26.80;53.00;;;;;;4925798;28;20023;-78
2022/06/02 12:09:32;;;;;;;0.00;0.00;;;26.50;55.30;;;;;;4926785;28;20126;-79
2022/06/02 12:12:22;;;;;;;0.00;0.00;;;26.30;55.80;;;;;;4864824;29;20028;-77
2022/06/02 12:15:06;;;;;;;0.00;0.00;;;26.00;56.30;;;;;;4866915;29;20041;-80
2022/06/02 12:17:44;;;;;;;0.00;0.00;;;25.90;55.40;;;;;;4908356;28;20050;-79
2022/06/02 12:20:09;;;;;;;0.00;0.00;;;25.80;57.70;;;;;;4924441;28;20059;-79
2022/06/02 12:23:00;;;;;;;0.00;0.00;;;25.80;55.20;;;;;;4922893;28;20066;-77
2022/06/02 12:26:00;;;;;;;0.00;0.00;;;25.60;57.50;;;;;;4907482;28;21106;-80
2022/06/02 12:28:48;;;;;;;0.00;0.00;;;25.60;59.40;;;;;;4921802;28;20030;-79
2022/06/02 12:31:37;;;;;;;0.00;0.00;;;25.60;57.60;;;;;;4925443;28;20031;-81
2022/06/02 12:34:11;;;;;;;0.00;0.00;;;25.60;56.00;;;;;;4912430;28;20043;-80
2022/06/02 12:36:49;;;;;;;0.00;0.00;;;25.60;56.20;;;;;;4931428;28;20300;-80
2022/06/02 12:39:28;;;;;;;0.00;0.00;;;25.70;56.60;;;;;;4932446;28;20544;-81
2022/06/02 12:42:16;;;;;;;0.00;0.00;;;25.80;56.80;;;;;;4914812;28;20186;-83
2022/06/02 12:44:41;;;;;;;;;;;25.80;56.80;;;;;;4915276;29;20103;-80
2022/06/02 12:47:10;;;;;;;0.00;0.00;;;25.80;54.60;;;;;;4913638;29;19950;-80
2022/06/02 12:50:03;;;;;;;0.00;0.00;;;25.90;53.80;;;;;;4915380;29;20297;-79
2022/06/02 12:52:38;;;;;;;0.00;0.00;;;26.00;55.90;;;;;;4915727;28;20027;-80
2022/06/02 12:55:24;;;;;;;0.00;0.00;;;26.10;57.40;;;;;;4928400;28;20187;-78
2022/06/02 12:58:14;;;;;;;0.00;0.00;;;26.10;57.80;;;;;;4932708;28;20031;-79
2022/06/02 13:01:08;;;;;;;0.00;0.00;;;26.10;56.10;;;;;;4929160;28;20031;-81
2022/06/02 13:03:55;;;;;;;0.00;0.00;;;26.10;55.50;;;;;;4913882;29;20654;-75
2022/06/02 13:06:55;;;;;;;0.00;0.00;;;26.10;59.80;;;;;;4913298;29;20063;-81
2022/06/02 13:09:33;;;;;;;0.00;0.00;;;26.10;59.00;;;;;;4911357;28;20032;-82
2022/06/02 13:12:16;;;;;;;0.00;0.00;;;26.10;59.10;;;;;;4930694;29;20035;-81
2022/06/02 13:15:39;;;;;;;0.00;0.00;;;26.10;59.40;;;;;;4909140;28;21082;-80
2022/06/02 13:18:42;;;;;;;0.00;0.00;;;26.10;58.10;;;;;;4857065;29;20032;-80
2022/06/02 13:21:27;;;;;;;0.00;0.00;;;26.10;59.60;;;;;;4874406;29;20035;-80
2022/06/02 13:24:22;;;;;;;0.00;0.00;;;26.00;58.50;;;;;;4923066;28;20050;-80
2022/06/02 13:27:32;;;;;;;0.00;0.00;;;25.90;58.50;;;;;;4931397;28;20027;-77
2022/06/02 13:30:18;;;;;;;0.00;0.00;;;25.90;57.90;;;;;;4911043;28;20084;-82
2022/06/02 13:33:21;;;;;;;0.00;0.00;;;25.80;58.40;;;;;;4914811;28;20061;-85
2022/06/02 13:36:13;;;;;;;0.00;0.00;;;25.70;58.50;;;;;;4932643;28;20027;-82
2022/06/02 13:38:57;;;;;;;0.00;0.00;;;25.60;57.90;;;;;;4912233;28;20039;-81
2022/06/02 13:41:44;;;;;;;0.00;0.00;;;25.60;59.30;;;;;;4910643;28;20065;-80
2022/06/02 13:44:31;;;;;;;0.00;0.00;;;25.60;59.60;;;;;;4928984;28;20086;-80
2022/06/02 13:47:24;;;;;;;0.00;0.00;;;25.60;59.70;;;;;;4907828;29;20039;-80
2022/06/02 13:50:12;;;;;;;0.00;0.00;;;25.60;59.50;;;;;;4908644;28;20465;-79
2022/06/02 13:53:00;;;;;;;0.00;0.00;;;25.60;60.20;;;;;;4927884;28;20146;-81
2022/06/02 13:58:34;;;;;;;0.00;0.00;;;25.70;59.90;;;;;;4926410;28;20120;-81
2022/06/02 14:01:18;;;;;;;;;;;25.70;61.10;;;;;;4910829;28;20126;-80
2022/06/02 14:04:17;;;;;;;0.00;0.00;;;25.80;59.90;;;;;;4927403;28;19997;-81
2022/06/02 14:07:22;;;;;;;0.00;0.00;;;25.80;58.10;;;;;;4929203;28;20046;-80
2022/06/02 14:10:06;;;;;;;0.00;0.00;;;25.80;58.70;;;;;;4919444;28;20042;-80
2022/06/02 14:12:38;;;;;;;0.00;0.00;;;25.70;60.20;;;;;;4929371;28;20054;-79
2022/06/02 14:15:24;;;;;;;0.00;0.00;;;25.70;58.10;;;;;;4929395;28;20050;-79
2022/06/02 14:18:11;;;;;;;0.00;0.00;;;25.60;60.10;;;;;;4928822;28;20071;-80
2022/06/02 14:21:15;;;;;;;0.00;0.00;;;25.60;60.40;;;;;;4928783;28;20042;-72
2022/06/02 14:23:52;;;;;;;0.00;0.00;;;25.50;59.20;;;;;;4929723;28;20034;-81
2022/06/02 14:26:54;;;;;;;0.00;0.00;;;25.50;60.00;;;;;;4929661;28;20442;-80
2022/06/02 14:29:20;;;;;;;0.00;0.00;;;25.50;61.50;;;;;;4927805;28;20027;-80
2022/06/02 14:31:51;;;;;;;0.00;0.00;;;25.50;60.30;;;;;;4929049;28;21083;-81
2022/06/02 14:34:38;;;;;;;0.00;0.00;;;25.50;58.80;;;;;;4928094;28;20031;-81